Time;durP1;ratioP1;P1;durP2;ratioP2;P2;SDS_P1;SDS_P2;PMS_P1;PMS_P2;Temp;Humidity;BMP_temperature;BMP_pressure;BME280_temperature;BME280_humidity;BME280_pressure;Samples;Min_cycle;Max_cycle;Signal;HPM_P1;HPM_P2
2024/03/01 00:00:19;;;;;;;0.00;0.00;;;;;;;6.36;69.54;98546.38;7358411;19;20034;-61
2024/03/01 00:02:45;;;;;;;0.00;0.00;;;;;;;6.37;69.59;98537.69;7363186;19;20086;-61
2024/03/01 00:05:10;;;;;;;0.10;0.10;;;;;;;6.31;69.65;98527.56;7364767;19;20803;-61
2024/03/01 00:07:36;;;;;;;0.10;0.10;;;;;;;6.41;69.79;98536.66;7364276;19;20018;-61
2024/03/01 00:10:01;;;;;;;0.10;0.10;;;;;;;6.43;70.19;98534.84;7364316;19;20013;-61
2024/03/01 00:12:26;;;;;;;0.08;0.08;;;;;;;6.43;70.08;98521.88;7360630;19;20006;-61
2024/03/01 00:14:52;;;;;;;0.10;0.10;;;;;;;6.48;70.50;98532.91;7357855;19;20033;-61
2024/03/01 00:17:18;;;;;;;0.00;0.00;;;;;;;6.50;71.05;98510.38;7362487;19;20014;-61
2024/03/01 00:19:43;;;;;;;0.10;0.10;;;;;;;6.51;70.99;98495.66;7358992;19;20007;-61
2024/03/01 00:22:08;;;;;;;0.00;0.00;;;;;;;6.58;71.18;98496.22;7362947;19;20025;-61
2024/03/01 00:24:34;;;;;;;0.10;0.10;;;;;;;6.60;71.57;98489.25;7362528;19;20010;-62
2024/03/01 00:26:59;;;;;;;0.10;0.10;;;;;;;6.61;71.51;98476.22;7362606;19;20019;-62
2024/03/01 00:29:25;;;;;;;0.10;0.10;;;;;;;6.69;72.13;98478.47;7361515;19;20074;-61
2024/03/01 00:31:50;;;;;;;0.10;0.10;;;;;;;6.71;71.65;98461.09;7356098;19;20019;-62
2024/03/01 00:34:15;;;;;;;0.10;0.10;;;;;;;6.76;71.81;98459.16;7362411;19;20053;-61
2024/03/01 00:36:41;;;;;;;0.10;0.10;;;;;;;6.79;71.93;98451.22;7353506;19;20014;-62
2024/03/01 00:39:07;;;;;;;0.00;0.00;;;;;;;6.81;72.05;98441.63;7362127;19;20056;-62
2024/03/01 00:41:33;;;;;;;0.00;0.00;;;;;;;6.83;72.46;98437.22;7362441;19;20038;-61
2024/03/01 00:43:58;;;;;;;0.10;0.10;;;;;;;6.88;72.08;98427.47;7359357;19;20025;-61
2024/03/01 00:46:24;;;;;;;0.00;0.00;;;;;;;6.90;72.37;98420.50;7364849;19;20019;-62
2024/03/01 00:48:53;;;;;;;0.00;0.00;;;;;;;6.93;72.33;98406.53;7361860;19;20003;-61
2024/03/01 00:51:19;;;;;;;0.10;0.10;;;;;;;6.96;72.54;98403.81;7356298;19;20428;-64
2024/03/01 00:53:44;;;;;;;0.00;0.00;;;;;;;6.98;72.43;98392.44;7359914;19;20015;-62
2024/03/01 00:56:11;;;;;;;0.10;0.10;;;;;;;6.99;72.48;98381.16;7363746;19;20010;-61
2024/03/01 00:58:37;;;;;;;0.05;0.05;;;;;;;7.03;72.44;98387.88;7357844;19;20022;-62
2024/03/01 01:01:02;;;;;;;0.10;0.10;;;;;;;7.06;71.96;98378.28;7362802;19;20510;-61
2024/03/01 01:03:28;;;;;;;0.10;0.10;;;;;;;7.07;72.17;98369.59;7355563;19;20045;-61
2024/03/01 01:05:53;;;;;;;0.10;0.10;;;;;;;7.08;71.97;98366.06;7356718;19;20046;-62
2024/03/01 01:08:18;;;;;;;0.10;0.10;;;;;;;7.07;72.06;98352.25;7360886;19;20046;-62
2024/03/01 01:10:44;;;;;;;0.00;0.00;;;;;;;7.08;71.45;98345.31;7358938;19;20010;-62
2024/03/01 01:13:10;;;;;;;0.10;0.10;;;;;;;7.14;71.21;98350.22;7362554;19;20014;-62
2024/03/01 01:15:35;;;;;;;0.10;0.10;;;;;;;7.16;71.13;98348.41;7363193;19;20010;-61
2024/03/01 01:18:01;;;;;;;0.10;0.10;;;;;;;7.15;71.16;98329.41;7360912;19;20017;-61
2024/03/01 01:20:26;;;;;;;0.10;0.10;;;;;;;7.12;71.18;98326.09;7360257;19;20011;-62
2024/03/01 01:22:52;;;;;;;0.10;0.10;;;;;;;6.96;71.22;98306.06;7351364;19;20802;-62
2024/03/01 01:25:18;;;;;;;0.00;0.00;;;;;;;7.00;71.75;98299.81;7360944;19;21032;-63
2024/03/01 01:27:43;;;;;;;0.05;0.05;;;;;;;6.82;71.56;98271.28;7363123;19;20081;-63
2024/03/01 01:30:09;;;;;;;0.10;0.10;;;;;;;6.91;72.19;98289.84;7356640;19;20544;-63
2024/03/01 01:32:35;;;;;;;0.10;0.10;;;;;;;6.77;71.66;98263.72;7356208;19;20025;-63
2024/03/01 01:35:01;;;;;;;0.10;0.10;;;;;;;6.81;72.23;98265.25;7360434;19;20626;-63
2024/03/01 01:37:26;;;;;;;0.10;0.10;;;;;;;6.76;72.90;98262.03;7360748;19;20733;-63
2024/03/01 01:39:51;;;;;;;0.10;0.10;;;;;;;6.74;72.97;98261.25;7354114;19;20018;-63
2024/03/01 01:42:17;;;;;;;0.10;0.10;;;;;;;6.71;73.22;98249.28;7361505;19;20520;-63
2024/03/01 01:44:43;;;;;;;0.10;0.10;;;;;;;6.70;72.83;98251.94;7349856;19;20017;-64
2024/03/01 01:47:08;;;;;;;0.10;0.10;;;;;;;6.69;73.04;98245.91;7358260;19;20014;-63
2024/03/01 01:49:34;;;;;;;0.10;0.10;;;;;;;6.67;73.28;98241.69;7361641;19;20014;-64
2024/03/01 01:52:00;;;;;;;0.10;0.10;;;;;;;6.47;73.49;98201.97;7353760;19;20006;-64
2024/03/01 01:54:26;;;;;;;0.00;0.00;;;;;;;6.66;73.40;98224.47;7360275;19;20017;-64
2024/03/01 01:56:52;;;;;;;0.10;0.10;;;;;;;6.64;73.87;98210.72;7357702;19;20022;-64
2024/03/01 01:59:18;;;;;;;0.00;0.00;;;;;;;6.64;73.67;98210.72;7354588;19;20010;-64
2024/03/01 02:01:44;;;;;;;0.00;0.00;;;;;;;6.63;73.65;98196.06;7359976;19;20010;-63
2024/03/01 02:04:09;;;;;;;0.00;0.00;;;;;;;6.62;73.28;98187.47;7354315;19;20014;-63
2024/03/01 02:06:35;;;;;;;0.10;0.10;;;;;;;6.63;72.96;98185.69;7368897;19;21966;-62
2024/03/01 02:09:01;;;;;;;0.00;0.00;;;;;;;6.63;72.36;98177.91;7365677;19;20010;-61
2024/03/01 02:11:27;;;;;;;0.05;0.05;;;;;;;6.47;72.30;98152.72;7365598;19;20057;-61
2024/03/01 02:13:56;;;;;;;0.00;0.00;;;;;;;6.62;72.99;98168.47;7359781;19;20776;-62
2024/03/01 02:16:22;;;;;;;0.00;0.00;;;;;;;6.57;72.54;98147.09;7363313;19;20086;-61
2024/03/01 02:18:50;;;;;;;0.03;0.03;;;;;;;6.58;73.09;98146.19;7367390;19;20035;-62
2024/03/01 02:21:22;;;;;;;0.00;0.00;;;;;;;6.53;72.99;98133.44;7362687;19;20011;-62
2024/03/01 02:23:48;;;;;;;0.00;0.00;;;;;;;6.53;73.48;98136.03;7369441;19;20014;-62
2024/03/01 02:26:13;;;;;;;0.10;0.10;;;;;;;6.46;73.83;98119.94;7367374;19;20733;-62
2024/03/01 02:28:44;;;;;;;0.00;0.00;;;;;;;6.36;73.38;98092.75;7362421;19;20106;-62
2024/03/01 02:31:09;;;;;;;0.05;0.05;;;;;;;6.50;73.15;98111.09;7367613;19;20015;-63
2024/03/01 02:33:35;;;;;;;0.10;0.10;;;;;;;6.52;72.98;98112.78;7364770;19;20015;-63
2024/03/01 02:36:01;;;;;;;0.10;0.10;;;;;;;6.52;73.17;98123.16;7363580;19;20030;-63
2024/03/01 02:38:28;;;;;;;0.10;0.10;;;;;;;6.40;73.79;98081.34;7366266;19;20018;-62
2024/03/01 02:40:54;;;;;;;0.10;0.10;;;;;;;6.53;72.74;98093.72;7366459;19;20014;-62
2024/03/01 02:43:19;;;;;;;0.10;0.10;;;;;;;6.53;73.57;98088.53;7366809;19;20030;-62
2024/03/01 02:45:45;;;;;;;0.10;0.10;;;;;;;6.53;73.91;98084.19;7368544;19;20390;-62
2024/03/01 02:48:10;;;;;;;0.00;0.00;;;;;;;6.55;74.36;98081.53;7370248;19;20014;-62
2024/03/01 02:50:35;;;;;;;0.10;0.10;;;;;;;6.56;74.41;98083.19;7364892;19;20022;-63
2024/03/01 02:53:01;;;;;;;0.08;0.08;;;;;;;6.58;73.61;98078.78;7357911;19;20969;-63
2024/03/01 02:55:26;;;;;;;0.03;0.03;;;;;;;6.58;73.93;98073.59;7364824;19;20002;-63
2024/03/01 02:57:53;;;;;;;0.10;0.10;;;;;;;6.37;72.86;98032.22;7361359;19;20033;-63
2024/03/01 03:00:19;;;;;;;0.10;0.10;;;;;;;6.58;73.80;98060.63;7368632;19;20478;-63
2024/03/01 03:02:45;;;;;;;0.00;0.00;;;;;;;6.49;73.97;98046.38;7369011;19;20019;-62
2024/03/01 03:05:11;;;;;;;0.00;0.00;;;;;;;6.52;73.73;98038.44;7369779;19;20452;-62
2024/03/01 03:07:37;;;;;;;0.10;0.10;;;;;;;6.45;73.24;98035.31;7366235;19;20007;-63
2024/03/01 03:10:03;;;;;;;0.10;0.10;;;;;;;6.41;73.81;98023.41;7365030;19;20499;-62
2024/03/01 03:12:29;;;;;;;0.10;0.10;;;;;;;6.31;73.90;98005.78;7368068;19;20010;-62
2024/03/01 03:14:55;;;;;;;0.10;0.10;;;;;;;6.26;74.40;98008.59;7365384;19;20026;-62
2024/03/01 03:17:21;;;;;;;0.10;0.10;;;;;;;6.37;74.40;98011.50;7367344;19;20010;-63
2024/03/01 03:19:48;;;;;;;0.10;0.10;;;;;;;6.14;74.44;97957.38;7367202;19;20023;-63
2024/03/01 03:22:14;;;;;;;0.00;0.00;;;;;;;6.35;74.36;97992.59;7367816;19;20035;-62
2024/03/01 03:24:40;;;;;;;0.10;0.10;;;;;;;6.22;75.19;97963.00;7366837;19;20777;-63
2024/03/01 03:27:06;;;;;;;0.00;0.00;;;;;;;6.34;75.38;97975.38;7365396;19;20085;-63
2024/03/01 03:29:31;;;;;;;0.10;0.10;;;;;;;6.16;76.00;97934.81;7363062;19;20324;-63
2024/03/01 03:31:56;;;;;;;0.10;0.10;;;;;;;6.36;75.83;97968.34;7364960;19;20023;-63
2024/03/01 03:34:22;;;;;;;0.00;0.00;;;;;;;6.38;75.89;97956.16;7370169;19;20022;-63
2024/03/01 03:36:48;;;;;;;0.05;0.05;;;;;;;6.23;76.25;97925.81;7367745;19;20021;-63
2024/03/01 03:39:15;;;;;;;0.08;0.08;;;;;;;6.18;75.66;97902.75;7368101;19;20014;-64
2024/03/01 03:41:40;;;;;;;0.10;0.10;;;;;;;6.41;75.48;97937.88;7368604;19;20365;-63
2024/03/01 03:44:06;;;;;;;0.10;0.10;;;;;;;6.43;74.60;97933.44;7364584;19;20009;-63
2024/03/01 03:46:31;;;;;;;0.10;0.10;;;;;;;6.44;75.26;97929.09;7368189;19;20029;-63
2024/03/01 03:48:57;;;;;;;0.10;0.10;;;;;;;6.42;74.99;97916.22;7366551;19;20014;-63
2024/03/01 03:51:27;;;;;;;0.00;0.00;;;;;;;6.41;75.27;97913.69;7357208;19;20032;-63
2024/03/01 03:53:56;;;;;;;0.10;0.10;;;;;;;6.40;76.07;97918.06;7363669;19;20036;-63
2024/03/01 03:56:22;;;;;;;0.10;0.10;;;;;;;6.35;75.82;97899.31;7360392;19;20002;-63
2024/03/01 03:58:49;;;;;;;0.00;0.00;;;;;;;6.33;75.29;97879.53;7365335;19;20062;-62
2024/03/01 04:01:15;;;;;;;0.10;0.10;;;;;;;6.36;75.55;97879.41;7362013;19;20009;-63
2024/03/01 04:03:41;;;;;;;0.00;0.00;;;;;;;6.36;75.32;97869.03;7362661;19;20346;-63
2024/03/01 04:06:07;;;;;;;0.10;0.10;;;;;;;6.34;75.91;97866.53;7362838;19;20007;-63
2024/03/01 04:08:36;;;;;;;0.10;0.10;;;;;;;6.34;75.57;97855.31;7365792;19;20781;-63
2024/03/01 04:11:05;;;;;;;0.10;0.10;;;;;;;6.34;76.29;97866.53;7360309;19;20401;-63
2024/03/01 04:13:35;;;;;;;0.10;0.10;;;;;;;6.34;76.45;97856.16;7365480;19;20010;-63
2024/03/01 04:16:02;;;;;;;0.10;0.10;;;;;;;6.34;76.40;97850.97;7368022;19;20002;-63
2024/03/01 04:18:28;;;;;;;0.10;0.10;;;;;;;6.34;76.03;97843.19;7366357;19;20002;-63
2024/03/01 04:20:55;;;;;;;0.10;0.10;;;;;;;6.35;75.99;97842.28;7364955;19;20902;-64
2024/03/01 04:23:21;;;;;;;0.10;0.10;;;;;;;6.35;75.73;97844.88;7366430;19;20400;-63
2024/03/01 04:25:51;;;;;;;0.10;0.10;;;;;;;6.34;75.75;97840.63;7366702;19;20383;-64
2024/03/01 04:28:20;;;;;;;0.00;0.00;;;;;;;6.23;75.59;97815.25;7335396;19;20020;-63
2024/03/01 04:30:46;;;;;;;0.10;0.10;;;;;;;6.26;76.00;97824.59;7358411;19;20011;-63
2024/03/01 04:33:12;;;;;;;0.00;0.00;;;;;;;6.12;75.91;97801.16;7362315;19;20010;-63
2024/03/01 04:35:37;;;;;;;0.10;0.10;;;;;;;6.31;75.87;97825.22;7367989;19;20031;-63
2024/03/01 04:38:04;;;;;;;0.10;0.10;;;;;;;6.15;76.68;97788.06;7363036;19;20010;-63
2024/03/01 04:40:29;;;;;;;0.10;0.10;;;;;;;6.32;76.61;97819.09;7368898;19;20479;-63
2024/03/01 04:42:55;;;;;;;0.00;0.00;;;;;;;6.33;76.47;97807.81;7358937;19;20007;-63
2024/03/01 04:45:20;;;;;;;0.00;0.00;;;;;;;6.33;76.52;97802.63;7364709;19;20118;-63
2024/03/01 04:47:45;;;;;;;0.10;0.10;;;;;;;6.35;75.90;97813.78;7360645;19;20011;-63
2024/03/01 04:50:11;;;;;;;0.00;0.00;;;;;;;6.33;76.54;97812.16;7364682;19;20653;-63
2024/03/01 04:52:36;;;;;;;0.05;0.05;;;;;;;6.33;76.48;97810.41;7358478;19;20011;-63
2024/03/01 04:55:05;;;;;;;0.10;0.10;;;;;;;6.33;76.49;97815.59;7361818;19;20566;-64
2024/03/01 04:57:31;;;;;;;0.10;0.10;;;;;;;6.34;76.76;97809.50;7359725;19;20006;-65
2024/03/01 04:59:56;;;;;;;0.00;0.00;;;;;;;6.35;76.71;97805.16;7363193;19;20014;-63
2024/03/01 05:02:22;;;;;;;0.10;0.10;;;;;;;6.34;76.97;97812.09;7365058;19;20015;-64
2024/03/01 05:04:47;;;;;;;0.00;0.00;;;;;;;6.36;76.73;97807.66;7365065;19;20027;-63
2024/03/01 05:07:13;;;;;;;0.10;0.10;;;;;;;6.33;77.32;97807.81;7363970;19;20113;-64
2024/03/01 05:09:38;;;;;;;0.10;0.10;;;;;;;6.38;77.01;97804.97;7364705;19;20010;-63
2024/03/01 05:12:04;;;;;;;0.10;0.10;;;;;;;6.39;77.14;97799.75;7362256;19;20013;-63
2024/03/01 05:14:30;;;;;;;0.10;0.10;;;;;;;6.42;77.31;97807.34;7363908;19;20011;-63
2024/03/01 05:16:56;;;;;;;0.10;0.10;;;;;;;6.38;77.15;97795.44;7360270;19;19998;-63
2024/03/01 05:19:21;;;;;;;0.10;0.10;;;;;;;6.46;77.21;97801.09;7365297;19;20037;-63
2024/03/01 05:21:47;;;;;;;0.10;0.10;;;;;;;6.48;77.02;97801.81;7360215;19;20002;-63
2024/03/01 05:24:13;;;;;;;0.00;0.00;;;;;;;6.50;77.15;97794.81;7365257;19;20014;-64
2024/03/01 05:26:39;;;;;;;0.10;0.10;;;;;;;6.41;77.18;97784.09;7364784;19;20011;-64
2024/03/01 05:29:04;;;;;;;0.10;0.10;;;;;;;6.47;77.43;97794.16;7366466;19;20098;-64
2024/03/01 05:31:45;;;;;;;0.00;0.00;;;;;;;6.46;77.32;97789.88;7363546;19;20019;-64
2024/03/01 05:34:10;;;;;;;0.05;0.05;;;;;;;6.50;77.48;97825.94;7360056;19;20003;-64
2024/03/01 05:36:36;;;;;;;0.10;0.10;;;;;;;6.49;76.80;97819.09;7363175;19;20375;-64
2024/03/01 05:39:15;;;;;;;0.10;0.10;;;;;;;6.45;76.40;97802.00;7369651;19;20047;-64
2024/03/01 05:41:44;;;;;;;0.10;0.10;;;;;;;6.46;76.57;97811.47;7360017;19;20801;-64
2024/03/01 05:44:11;;;;;;;0.10;0.10;;;;;;;6.44;76.46;97808.13;7373449;19;20007;-64
2024/03/01 05:46:36;;;;;;;0.10;0.10;;;;;;;6.40;76.85;97804.00;7367839;19;20851;-65
2024/03/01 05:49:01;;;;;;;0.10;0.10;;;;;;;6.39;77.28;97804.94;7368513;19;20019;-64
2024/03/01 05:51:27;;;;;;;0.00;0.00;;;;;;;6.38;77.30;97800.63;7357637;19;20052;-64
2024/03/01 05:53:52;;;;;;;0.00;0.00;;;;;;;6.38;76.72;97802.41;7370538;19;20018;-64
2024/03/01 05:56:18;;;;;;;0.10;0.10;;;;;;;6.35;77.24;97811.19;7367806;19;20478;-64
2024/03/01 05:58:45;;;;;;;0.10;0.10;;;;;;;6.30;77.19;97802.81;7369543;19;20713;-64
2024/03/01 06:01:10;;;;;;;0.10;0.10;;;;;;;6.32;77.20;97805.31;7352415;19;20707;-64
2024/03/01 06:03:38;;;;;;;0.10;0.10;;;;;;;6.31;77.40;97809.66;7368829;19;20600;-64
2024/03/01 06:06:03;;;;;;;;;;;;;;;6.32;76.15;97798.38;7371610;19;20136;-64
2024/03/01 06:08:29;;;;;;;0.10;0.10;;;;;;;6.29;77.12;97795.13;7358938;19;19982;-63
2024/03/01 06:10:54;;;;;;;0.10;0.10;;;;;;;6.27;77.28;97787.41;7365196;19;20555;-64
2024/03/01 06:13:20;;;;;;;0.00;0.00;;;;;;;6.19;77.89;97779.22;7369805;19;20014;-64
2024/03/01 06:15:45;;;;;;;0.00;0.00;;;;;;;6.23;77.44;97796.25;7351750;19;20023;-64
2024/03/01 06:18:11;;;;;;;0.10;0.10;;;;;;;6.21;77.35;97782.56;7369671;19;20011;-65
2024/03/01 06:20:36;;;;;;;0.00;0.00;;;;;;;6.19;77.32;97774.03;7370039;19;20021;-64
2024/03/01 06:23:02;;;;;;;0.03;0.03;;;;;;;6.19;77.74;97779.22;7370440;19;20010;-64
2024/03/01 06:25:27;;;;;;;0.08;0.08;;;;;;;6.18;77.78;97782.69;7370953;19;20007;-64
2024/03/01 06:27:53;;;;;;;0.03;0.03;;;;;;;6.17;77.94;97773.25;7371602;19;20027;-64
2024/03/01 06:30:18;;;;;;;0.10;0.10;;;;;;;6.17;77.77;97779.25;7370634;19;20025;-63
2024/03/01 06:32:43;;;;;;;0.00;0.00;;;;;;;6.17;78.10;97781.03;7360047;19;20014;-64
2024/03/01 06:35:09;;;;;;;0.10;0.10;;;;;;;6.17;78.28;97775.84;7372788;19;20037;-64
2024/03/01 06:37:35;;;;;;;0.10;0.10;;;;;;;6.18;78.09;97774.91;7369103;19;20049;-64
2024/03/01 06:40:05;;;;;;;0.10;0.10;;;;;;;6.19;77.81;97768.84;7371426;19;20032;-63
2024/03/01 06:42:33;;;;;;;0.10;0.10;;;;;;;6.19;78.25;97776.63;7369836;19;20011;-63
2024/03/01 06:44:58;;;;;;;0.03;0.03;;;;;;;6.20;77.85;97780.88;7364393;19;20384;-63
2024/03/01 06:47:24;;;;;;;0.03;0.03;;;;;;;6.16;77.93;97772.41;7369434;19;20022;-64
2024/03/01 06:49:49;;;;;;;0.00;0.00;;;;;;;6.18;78.33;97769.75;7366825;19;20006;-64
2024/03/01 06:52:15;;;;;;;0.00;0.00;;;;;;;6.13;78.40;97769.13;7365223;19;20157;-64
2024/03/01 06:54:41;;;;;;;0.10;0.10;;;;;;;6.18;78.02;97780.09;7366482;19;20002;-64
2024/03/01 06:57:06;;;;;;;0.05;0.05;;;;;;;6.18;77.83;97778.38;7369492;19;20010;-64
2024/03/01 06:59:31;;;;;;;0.00;0.00;;;;;;;6.18;78.37;97782.69;7362437;19;20011;-63
2024/03/01 07:01:57;;;;;;;0.10;0.10;;;;;;;6.17;78.15;97789.63;7367404;19;20018;-63
2024/03/01 07:04:22;;;;;;;0.10;0.10;;;;;;;6.19;77.66;97795.59;7369220;19;20010;-65
2024/03/01 07:06:48;;;;;;;0.10;0.10;;;;;;;6.14;77.57;97800.16;7366922;19;20351;-63
2024/03/01 07:09:13;;;;;;;0.03;0.03;;;;;;;6.12;77.53;97803.75;7371784;19;20006;-62
2024/03/01 07:11:39;;;;;;;0.10;0.10;;;;;;;6.04;76.92;97808.50;7363452;19;20480;-62
2024/03/01 07:14:04;;;;;;;0.10;0.10;;;;;;;5.94;76.92;97800.34;7366315;19;20011;-62
2024/03/01 07:16:29;;;;;;;0.00;0.00;;;;;;;5.82;76.42;97806.94;7364334;19;20014;-62
2024/03/01 07:18:55;;;;;;;0.00;0.00;;;;;;;5.70;76.28;97815.31;7366543;19;20018;-62
2024/03/01 07:21:20;;;;;;;0.10;0.10;;;;;;;5.56;76.41;97815.97;7363883;19;20714;-62
2024/03/01 07:23:45;;;;;;;0.10;0.10;;;;;;;5.41;76.70;97824.47;7365465;19;20008;-64
2024/03/01 07:26:11;;;;;;;0.00;0.00;;;;;;;5.26;76.74;97828.63;7367609;19;20015;-63
2024/03/01 07:28:36;;;;;;;0.10;0.10;;;;;;;5.14;76.51;97814.53;7367426;19;20104;-62
2024/03/01 07:31:03;;;;;;;0.00;0.00;;;;;;;5.01;76.16;97836.69;7366466;19;20007;-62
2024/03/01 07:33:30;;;;;;;0.05;0.05;;;;;;;4.86;76.06;97825.31;7363711;19;20537;-62
2024/03/01 07:35:56;;;;;;;0.00;0.00;;;;;;;4.70;76.70;97829.50;7364701;19;20011;-63
2024/03/01 07:38:21;;;;;;;0.00;0.00;;;;;;;4.53;76.42;97834.59;7367391;19;20015;-62
2024/03/01 07:40:46;;;;;;;0.10;0.10;;;;;;;4.36;76.79;97841.34;7370155;19;20010;-62
2024/03/01 07:43:12;;;;;;;0.00;0.00;;;;;;;4.21;76.69;97836.84;7362024;19;20390;-63
2024/03/01 07:45:37;;;;;;;0.00;0.00;;;;;;;4.09;76.79;97832.19;7361772;19;20074;-63
2024/03/01 07:48:04;;;;;;;0.10;0.10;;;;;;;3.98;76.19;97830.06;7363397;19;20014;-63
2024/03/01 07:50:29;;;;;;;0.00;0.00;;;;;;;3.87;76.87;97838.25;7363841;19;20019;-62
2024/03/01 07:52:56;;;;;;;0.05;0.05;;;;;;;3.79;77.19;97835.13;7359990;19;20106;-63
2024/03/01 07:55:21;;;;;;;0.10;0.10;;;;;;;3.74;77.50;97831.91;7368089;19;20029;-64
2024/03/01 07:57:48;;;;;;;0.10;0.10;;;;;;;3.62;77.17;97829.84;7362677;19;20010;-63
2024/03/01 08:00:14;;;;;;;0.00;0.00;;;;;;;3.65;77.83;97832.31;7362633;19;20992;-63
2024/03/01 08:02:39;;;;;;;0.03;0.03;;;;;;;3.62;78.27;97835.84;7362131;19;20013;-64
2024/03/01 08:05:06;;;;;;;0.00;0.00;;;;;;;3.63;78.54;97839.25;7368793;19;20014;-63
2024/03/01 08:07:31;;;;;;;0.00;0.00;;;;;;;3.63;78.46;97840.09;7365109;19;20016;-63
2024/03/01 08:09:57;;;;;;;0.08;0.08;;;;;;;3.58;78.05;97831.69;7364930;19;20466;-63
2024/03/01 08:12:22;;;;;;;0.10;0.10;;;;;;;3.66;78.84;97839.16;7356098;19;20094;-63
2024/03/01 08:14:51;;;;;;;0.10;0.10;;;;;;;3.69;78.96;97843.31;7364953;19;20019;-63
2024/03/01 08:17:17;;;;;;;0.10;0.10;;;;;;;3.72;79.47;97849.22;7364214;19;20018;-63
2024/03/01 08:19:45;;;;;;;0.00;0.00;;;;;;;3.77;79.30;97847.28;7368160;19;20010;-63
2024/03/01 08:22:14;;;;;;;0.10;0.10;;;;;;;3.77;79.54;97841.28;7364222;19;20051;-63
2024/03/01 08:24:41;;;;;;;0.10;0.10;;;;;;;3.85;79.62;97850.41;7367269;19;20503;-63
2024/03/01 08:27:08;;;;;;;0.00;0.00;;;;;;;3.88;79.40;97855.41;7365912;19;20017;-63
2024/03/01 08:29:34;;;;;;;0.00;0.00;;;;;;;3.94;79.93;97854.31;7368802;19;20374;-63
2024/03/01 08:32:00;;;;;;;0.10;0.10;;;;;;;3.99;79.73;97854.13;7357252;19;20010;-63
2024/03/01 08:34:33;;;;;;;0.00;0.00;;;;;;;4.05;79.63;97856.44;7350054;19;20018;-63
2024/03/01 08:36:58;;;;;;;0.00;0.00;;;;;;;4.09;79.64;97858.00;7350852;19;20007;-63
2024/03/01 08:39:25;;;;;;;0.03;0.03;;;;;;;3.99;79.67;97815.41;7365273;19;20025;-63
2024/03/01 08:41:56;;;;;;;0.08;0.08;;;;;;;4.22;79.36;97833.34;7366572;19;20473;-63
2024/03/01 08:44:42;;;;;;;0.00;0.00;;;;;;;4.29;79.81;97833.91;7364581;19;20059;-63
2024/03/01 08:47:23;;;;;;;0.10;0.10;;;;;;;4.36;79.54;97825.00;7363934;19;20018;-63
2024/03/01 08:49:51;;;;;;;0.03;0.03;;;;;;;4.44;79.41;97825.50;7366447;19;20021;-63
2024/03/01 08:52:37;;;;;;;0.10;0.10;;;;;;;4.53;79.57;97816.50;7365270;19;20019;-63
2024/03/01 08:55:17;;;;;;;0.00;0.00;;;;;;;4.61;79.75;97814.41;7365620;19;20049;-63
2024/03/01 08:57:49;;;;;;;0.10;0.10;;;;;;;4.67;79.64;97814.16;7339604;19;20006;-63
2024/03/01 09:00:39;;;;;;;0.10;0.10;;;;;;;4.75;79.83;97806.88;7361784;19;20018;-63
2024/03/01 09:03:09;;;;;;;0.00;0.00;;;;;;;4.81;80.08;97816.91;7363894;19;20022;-63
2024/03/01 09:05:39;;;;;;;0.10;0.10;;;;;;;4.81;79.94;97801.41;7361074;19;20007;-63
2024/03/01 09:08:05;;;;;;;0.10;0.10;;;;;;;4.94;80.07;97812.88;7364549;19;20037;-64
2024/03/01 09:10:33;;;;;;;0.10;0.10;;;;;;;5.02;80.22;97809.09;7361665;19;20014;-63
2024/03/01 09:12:58;;;;;;;;;;;;;;;5.09;79.16;97792.38;7356381;19;20006;-63
2024/03/01 09:15:26;;;;;;;0.00;0.00;;;;;;;5.11;80.13;97795.72;7361660;19;19922;-64
2024/03/01 09:17:54;;;;;;;0.00;0.00;;;;;;;5.16;80.01;97783.41;7363719;19;20086;-63
2024/03/01 09:20:22;;;;;;;0.10;0.10;;;;;;;5.19;80.04;97781.53;7362206;19;20077;-63
2024/03/01 09:22:48;;;;;;;0.00;0.00;;;;;;;5.22;79.75;97770.22;7361652;19;20006;-63
2024/03/01 09:25:49;;;;;;;0.00;0.00;;;;;;;5.29;79.76;97776.75;7364616;19;20457;-63
2024/03/01 09:28:16;;;;;;;0.00;0.00;;;;;;;5.32;80.04;97781.78;7355108;19;20435;-63
2024/03/01 09:30:46;;;;;;;0.00;0.00;;;;;;;5.36;79.67;97767.78;7360674;19;20807;-63
2024/03/01 09:33:20;;;;;;;0.00;0.00;;;;;;;5.39;80.13;97767.63;7360370;19;20014;-63
2024/03/01 09:35:50;;;;;;;0.10;0.10;;;;;;;5.41;80.14;97765.78;7357378;19;20044;-63
2024/03/01 09:38:16;;;;;;;0.00;0.00;;;;;;;5.39;79.87;97746.94;7363487;19;20015;-63
2024/03/01 09:40:50;;;;;;;0.00;0.00;;;;;;;5.50;79.85;97753.34;7351836;19;20624;-63
2024/03/01 09:43:40;;;;;;;0.10;0.10;;;;;;;5.55;79.84;97749.59;7361741;19;20481;-63
2024/03/01 09:46:17;;;;;;;0.10;0.10;;;;;;;5.60;80.17;97764.91;7359983;19;20101;-63
2024/03/01 09:48:58;;;;;;;0.10;0.10;;;;;;;5.63;80.01;97754.41;7356247;19;20010;-64
2024/03/01 09:51:36;;;;;;;0.00;0.00;;;;;;;5.67;80.17;97754.16;7361665;19;20022;-63
2024/03/01 09:54:14;;;;;;;0.10;0.10;;;;;;;5.70;79.67;97755.75;7358704;19;20720;-64
2024/03/01 09:56:48;;;;;;;0.00;0.00;;;;;;;5.74;79.76;97757.28;7363926;19;20040;-63
2024/03/01 09:59:48;;;;;;;0.00;0.00;;;;;;;5.78;79.84;97764.00;7361829;19;20538;-64
2024/03/01 10:02:34;;;;;;;0.10;0.10;;;;;;;5.81;79.88;97766.41;7357306;19;20014;-64
2024/03/01 10:05:43;;;;;;;0.10;0.10;;;;;;;5.84;79.61;97766.28;7362045;19;20038;-63
2024/03/01 10:08:21;;;;;;;0.00;0.00;;;;;;;5.89;79.91;97766.88;7360664;19;20486;-63
2024/03/01 10:11:05;;;;;;;0.10;0.10;;;;;;;5.90;80.15;97768.53;7360544;19;20090;-63
2024/03/01 10:13:58;;;;;;;0.10;0.10;;;;;;;5.93;79.77;97767.56;7359499;19;20700;-64
2024/03/01 10:17:00;;;;;;;0.10;0.10;;;;;;;5.97;79.87;97775.09;7365235;19;20011;-63
2024/03/01 10:20:11;;;;;;;0.00;0.00;;;;;;;6.01;79.90;97774.97;7362001;19;20013;-64
2024/03/01 10:23:03;;;;;;;0.08;0.08;;;;;;;6.02;79.67;97776.63;7359288;19;20015;-63
2024/03/01 10:25:54;;;;;;;0.10;0.10;;;;;;;6.04;79.88;97780.84;7363675;19;20017;-63
2024/03/01 10:28:40;;;;;;;0.10;0.10;;;;;;;6.06;79.90;97765.22;7366409;19;20019;-63
2024/03/01 10:31:33;;;;;;;0.10;0.10;;;;;;;6.07;79.78;97777.22;7366245;19;20446;-64
2024/03/01 10:34:10;;;;;;;0.08;0.08;;;;;;;6.07;80.04;97774.66;7364190;19;20748;-63
2024/03/01 10:36:43;;;;;;;0.00;0.00;;;;;;;6.02;79.76;97771.44;7370816;19;20534;-63
2024/03/01 10:39:14;;;;;;;0.05;0.05;;;;;;;6.08;79.92;97786.66;7368156;19;20046;-63
2024/03/01 10:41:58;;;;;;;0.00;0.00;;;;;;;6.09;79.83;97790.97;7367971;19;20010;-63
2024/03/01 10:45:02;;;;;;;0.10;0.10;;;;;;;6.11;79.85;97776.16;7366905;19;20045;-64
2024/03/01 10:47:28;;;;;;;0.10;0.10;;;;;;;6.00;79.65;97773.28;7366604;19;20496;-63
2024/03/01 10:50:12;;;;;;;0.10;0.10;;;;;;;6.11;79.84;97796.91;7369193;19;20002;-63
2024/03/01 10:52:44;;;;;;;0.10;0.10;;;;;;;6.10;79.73;97805.59;7364617;19;20053;-64
2024/03/01 10:55:20;;;;;;;0.00;0.00;;;;;;;6.10;79.75;97796.06;7364626;19;20360;-63
2024/03/01 10:57:53;;;;;;;0.00;0.00;;;;;;;6.08;79.35;97797.88;7363541;19;20010;-63
2024/03/01 11:00:26;;;;;;;0.05;0.05;;;;;;;6.05;79.48;97781.66;7363844;19;20020;-63
2024/03/01 11:03:12;;;;;;;0.10;0.10;;;;;;;6.03;79.69;97788.66;7368313;19;20354;-63
2024/03/01 11:05:49;;;;;;;0.10;0.10;;;;;;;6.02;79.91;97792.16;7364878;19;20592;-64
2024/03/01 11:08:14;;;;;;;0.10;0.10;;;;;;;5.97;79.95;97790.66;7367053;19;20025;-63
2024/03/01 11:11:05;;;;;;;0.10;0.10;;;;;;;5.99;79.75;97790.59;7364452;19;20015;-63
2024/03/01 11:13:34;;;;;;;0.10;0.10;;;;;;;6.00;79.97;97794.00;7367082;19;20819;-64
2024/03/01 11:16:01;;;;;;;0.00;0.00;;;;;;;6.01;79.89;97806.03;7360237;19;20094;-64
2024/03/01 11:18:40;;;;;;;0.10;0.10;;;;;;;5.95;80.33;97787.31;7368373;19;20736;-63
2024/03/01 11:21:10;;;;;;;0.10;0.10;;;;;;;5.97;80.30;97779.44;7370105;19;20017;-63
2024/03/01 11:23:46;;;;;;;0.10;0.10;;;;;;;6.07;80.34;97816.09;7366032;19;20026;-63
2024/03/01 11:26:17;;;;;;;0.00;0.00;;;;;;;6.08;80.46;97803.06;7363844;19;20035;-64
2024/03/01 11:28:54;;;;;;;0.10;0.10;;;;;;;6.11;80.26;97812.44;7367508;19;20490;-63
2024/03/01 11:31:22;;;;;;;;;;;;;;;6.15;79.78;97801.84;7360568;19;20554;-63
2024/03/01 11:33:48;;;;;;;;;;;;;;;6.18;80.00;97787.88;7365349;19;19945;-64
2024/03/01 11:36:40;;;;;;;0.10;0.10;;;;;;;6.20;79.96;97804.19;7357864;19;20746;-64
2024/03/01 11:39:23;;;;;;;0.10;0.10;;;;;;;6.18;79.97;97814.66;7363628;19;20510;-64
2024/03/01 11:42:22;;;;;;;0.00;0.00;;;;;;;6.19;79.95;97826.69;7365224;19;20014;-64
2024/03/01 11:45:05;;;;;;;0.10;0.10;;;;;;;6.20;79.86;97807.63;7365943;19;20006;-64
2024/03/01 11:47:46;;;;;;;0.10;0.10;;;;;;;6.15;80.36;97793.22;7361980;19;20839;-64
2024/03/01 11:50:14;;;;;;;0.00;0.00;;;;;;;6.21;80.29;97818.81;7364853;19;20094;-64
2024/03/01 11:52:57;;;;;;;0.10;0.10;;;;;;;6.26;80.52;97816.84;7364660;19;20444;-64